Aérodrome :
LOGIN :

S'inscrire | Disclaimer

   EN    FR    IT 

 










Légende :    VFR   VFR Marginal   IFR   IFR Intensif   IFR Très Intensif
Visi : 
Plafond : 
>= 8 km
>= 3000ft
5 à 8 km
1000 à 3000 ft
1500m à 5 km
500 à 1000 ft
800 à 1500m
200 à 500 ft
< 800m
< 200 ft
Symboles :   Orages  Brouillard  Fortes neiges  Fortes précipitations  Vent > 20 kt
SIGMETs :   Divers  Orages  Givrage  Turbulence  Onde Orograph.  Cendres Volcan.







- Altitude de l'aérodrome : 93 ft
- Code IATA : XRY


LEJR - Jerez

DERNIER METAR :
  • 162030Z 00000KT 9999 SCT067 11/08 Q1019

METARs EXPIRÉS :
  • 162000Z 15002KT 9999 FEW030 BKN055 12/08 Q1019
  • 161930Z 17002KT 9999 FEW030 BKN055 12/09 Q1019
  • 161900Z 17002KT 9999 FEW030 BKN055 12/08 Q1019
  • 161830Z 20005KT 9999 FEW030 BKN055 12/09 Q1018
  • 161800Z 19005KT 9999 FEW030 BKN055 13/09 Q1018

TAF TAF LEJR
Valide du 16 à 18h jusqu'au 17 à 18h UTC


161700Z 1618/1718 13006KT 9999 FEW025 TX16/1715Z TN04/1707Z
TEMPO 1622/1710 3000 BR
PROB40
TEMPO 1702/1708 0500 BCFG
Pas de NOTAMs connus pour ce terrain.



MET'MAP, la Météo Aéronautique d'un coup d'oeil ! - Copyright ORBIFLY Décembre 2007 - Disclaimer

ORBIFLY MET'MAP TEAM :

Programmation & Développement : Alexandra Zaïnal
Conception & Développement : Baudouin d'Aumeries
Co-Programmation & Développement : Marc-Olivier Méhu
Soutien technique & logistique : Manuel Goepfert

Contact : metmap@orbifly.com




SOURCES & CREDITS :

   NOAA